ハリファックス の空港の天気 - METARとTAF

ハリファックス国際空港 ( CYHZ / YHZ ) - カナダ ノバスコシア州ハリファックス
飛行場実況気象(Metar)
観測時間07/21 22:50 ADT (07/22 01:50 UTC)
風向・風速北 7m/s 瞬間風速11m/s
視程10km以上
天気現象
少しの雲 雲底高度 90m
全天を覆う雲 雲底高度 700m
気温19℃
湿度94%
気圧1004.5hPa
METARCYHZ 220150Z 01014G21KT 15SM FEW003 OVC023 19/18 A2966 RMK SF2SC6 SLP045 DENSITY ALT 1300FT
過去の天気等 Google飛行場航空写真 Wunderground天気予報

過去48時間のMETAR

飛行場予報(TAF)
発表時間: 7/21 20:39 ADT (7/21 23:39 UTC)
予報対象時間: 21日21時 ADT ~ 22日21時 ADT
風向・風速北 3m/s
視程4830m
天気現象弱いしゅう雨 もや
全天を覆う雲 雲底高度 60m
21日21時 ADT ~ 21日23時 ADT に一時的に
視程10km以上
天気現象もや
全天を覆う雲 雲底高度 300m
21日23時 ADT から
風向・風速西北西 4m/s
視程8050m
天気現象弱いしゅう雨 もや
全天を覆う雲 雲底高度 240m
21日23時 ADT ~ 22日2時 ADT に一時的に
視程10km以上
天気現象もや
全天を覆う雲 雲底高度 300m
22日2時 ADT から
風向・風速北西 4m/s
視程8050m
天気現象もや
全天の8割程度の雲 雲底高度 240m
全天を覆う雲 雲底高度 1220m
22日2時 ADT ~ 22日8時 ADT に一時的に
視程10km以上
天気現象運行に影響にある天気現象が終了
全天の4割程度の雲 雲底高度 240m
全天を覆う雲 雲底高度 1220m
22日8時 ADT から
風向・風速北西 5m/s
視程10km以上
少しの雲 雲底高度 240m
全天の4割程度の雲 雲底高度 1220m
22日13時 ADT から
風向・風速西北西 6m/s
視程10km以上
少しの雲 雲底高度 1520m
22日19時 ADT ~ 22日21時 ADT に徐々に
風向・風速北 3m/s
TAF CYHZ 212339Z 2200/2224 36005KT 3SM -SHRA BR OVC002
TEMPO 2200/2202 6SM BR OVC010
FM220200 30008KT 5SM -SHRA BR OVC008
TEMPO 2202/2205 6SM BR OVC010
FM220500 32008KT 5SM BR BKN008 OVC040
TEMPO 2205/2211 P6SM NSW SCT008 OVC040
FM221100 32010KT P6SM FEW008 SCT040
FM221600 30012KT P6SM FEW050
BECMG 2222/2224 35005KT RMK NXT FCST BY 220300Z